Time;durP1;ratioP1;P1;durP2;ratioP2;P2;SDS_P1;SDS_P2;PMS_P1;PMS_P2;Temp;Humidity;BMP_temperature;BMP_pressure;BME280_temperature;BME280_humidity;BME280_pressure;Samples;Min_cycle;Max_cycle;Signal;HPM_P1;HPM_P2
2023/04/24 00:00:01;;;;;;;;;5.67;5.00;;;;;11.40;61.46;99921.16;4956753;28;45521;-62
2023/04/24 00:02:26;;;;;;;;;5.00;5.00;;;;;11.47;60.88;99927.78;4957049;28;45503;-63
2023/04/24 00:04:51;;;;;;;;;3.00;3.00;;;;;11.47;60.72;99928.69;4956644;28;46120;-63
2023/04/24 00:07:17;;;;;;;;;5.00;4.00;;;;;11.44;60.24;99923.53;4956638;28;45715;-62
2023/04/24 00:09:43;;;;;;;;;2.33;2.33;;;;;11.40;61.04;99921.16;4957087;28;45435;-62
2023/04/24 00:12:09;;;;;;;;;5.00;3.33;;;;;11.47;61.14;99931.31;4956762;28;45525;-62
2023/04/24 00:14:35;;;;;;;;;5.67;3.00;;;;;11.45;60.68;99925.25;4956686;28;45577;-62
2023/04/24 00:17:02;;;;;;;;;4.33;4.00;;;;;11.42;61.15;99928.06;4956583;28;45434;-62
2023/04/24 00:19:28;;;;;;;;;4.00;4.00;;;;;11.45;60.82;99937.56;4957245;28;45493;-62
2023/04/24 00:21:54;;;;;;;;;4.00;4.00;;;;;11.36;61.58;99940.66;4956693;28;45426;-62
2023/04/24 00:24:20;;;;;;;;;5.00;3.00;;;;;11.35;61.25;99945.06;4956315;28;45366;-62
2023/04/24 00:26:45;;;;;;;;;4.00;4.00;;;;;11.33;61.06;99948.69;4955545;28;45434;-62
2023/04/24 00:29:10;;;;;;;;;3.33;3.00;;;;;11.32;61.25;99954.91;4956430;28;45359;-62
2023/04/24 00:31:36;;;;;;;;;5.00;4.67;;;;;11.30;61.50;99956.75;4956630;28;45283;-63
2023/04/24 00:34:02;;;;;;;;;6.33;5.00;;;;;11.21;61.93;99961.53;4956400;28;46027;-62
2023/04/24 00:36:27;;;;;;;;;4.00;4.00;;;;;11.24;60.89;99968.44;4956235;28;45505;-63
2023/04/24 00:38:53;;;;;;;;;5.00;5.00;;;;;11.20;60.79;99959.84;4956490;28;45380;-62
2023/04/24 00:41:19;;;;;;;;;4.00;3.00;;;;;11.10;61.29;99955.94;4955350;28;45672;-62
2023/04/24 00:43:45;;;;;;;;;3.00;3.00;;;;;11.18;61.60;99968.75;4956317;28;45552;-62
2023/04/24 00:46:11;;;;;;;;;3.33;3.33;;;;;11.16;61.30;99976.69;4955970;28;45531;-63
2023/04/24 00:48:39;;;;;;;;;4.00;4.00;;;;;11.04;61.71;99958.84;4956233;28;45578;-62
2023/04/24 00:51:04;;;;;;;;;2.00;2.00;;;;;11.06;62.12;99970.16;4956315;28;45401;-62
2023/04/24 00:53:29;;;;;;;;;4.67;4.00;;;;;11.04;62.09;99966.72;4956188;28;46180;-63
2023/04/24 00:55:56;;;;;;;;;4.00;4.00;;;;;10.98;62.19;99980.19;4956121;28;45391;-63
2023/04/24 00:58:21;;;;;;;;;7.33;5.00;;;;;10.96;62.08;99975.03;4955937;28;45459;-62
2023/04/24 01:00:52;;;;;;;;;5.33;4.33;;;;;10.98;61.79;99970.50;4956147;28;45494;-62
2023/04/24 01:03:20;;;;;;;;;5.00;4.00;;;;;11.04;62.32;99991.31;4955833;28;45400;-62
2023/04/24 01:05:45;;;;;;;;;3.00;3.00;;;;;11.05;62.33;99979.00;4955899;28;45392;-62
2023/04/24 01:08:11;;;;;;;;;4.33;4.00;;;;;11.12;62.29;99987.44;4954826;28;45451;-62
2023/04/24 01:10:40;;;;;;;;;3.00;3.00;;;;;11.05;62.38;99981.63;4956175;28;45459;-61
2023/04/24 01:13:08;;;;;;;;;7.00;4.00;;;;;11.00;62.67;99981.81;4955528;28;45610;-63
2023/04/24 01:15:34;;;;;;;;;3.00;3.00;;;;;10.99;62.27;99974.03;4956029;28;45364;-62
2023/04/24 01:17:59;;;;;;;;;4.00;4.00;;;;;11.10;62.04;99966.47;4956354;28;45532;-62
2023/04/24 01:20:26;;;;;;;;;4.00;4.00;;;;;11.14;62.23;99975.06;4955964;28;45582;-63
2023/04/24 01:22:52;;;;;;;;;3.00;3.00;;;;;11.16;62.05;99965.31;4955758;28;45947;-62
2023/04/24 01:25:18;;;;;;;;;6.00;5.00;;;;;11.20;61.14;99973.00;4955697;28;45383;-62
2023/04/24 01:27:43;;;;;;;;;4.00;4.00;;;;;11.15;61.31;99966.22;4955646;28;45360;-62
2023/04/24 01:30:09;;;;;;;;;3.33;3.33;;;;;11.15;62.20;99976.75;4956023;28;45463;-62
2023/04/24 01:32:36;;;;;;;;;5.00;4.00;;;;;11.15;62.03;99972.38;4955531;28;45494;-62
2023/04/24 01:35:02;;;;;;;;;4.00;4.00;;;;;11.23;61.71;99979.88;4955400;28;45471;-62
2023/04/24 01:37:27;;;;;;;;;3.00;3.00;;;;;11.18;61.95;99982.75;4955788;28;45535;-62
2023/04/24 01:39:53;;;;;;;;;3.33;3.33;;;;;11.18;61.55;99982.75;4955670;28;45546;-62
2023/04/24 01:42:19;;;;;;;;;3.00;3.00;;;;;11.14;61.83;99991.69;4955305;28;45509;-62
2023/04/24 01:44:44;;;;;;;;;4.00;3.00;;;;;11.15;61.63;99985.53;4955375;28;45422;-62
2023/04/24 01:47:10;;;;;;;;;2.33;2.33;;;;;11.15;61.02;99989.91;4955706;28;45408;-62
2023/04/24 01:49:38;;;;;;;;;6.00;5.00;;;;;11.20;61.15;99998.44;4955624;28;45380;-63
2023/04/24 01:52:03;;;;;;;;;5.67;4.00;;;;;11.20;61.89;99998.44;4956609;28;45699;-62
2023/04/24 01:54:29;;;;;;;;;5.00;4.67;;;;;11.14;62.04;99999.59;4958644;28;45538;-62
2023/04/24 01:56:54;;;;;;;;;5.00;4.00;;;;;11.12;61.93;99996.16;4958932;28;45462;-62
2023/04/24 01:59:21;;;;;;;;;3.00;2.33;;;;;11.12;62.14;100005.84;4958697;28;45668;-62
2023/04/24 02:01:46;;;;;;;;;1.33;1.33;;;;;11.02;61.64;100006.28;4958521;28;46077;-62
2023/04/24 02:04:12;;;;;;;;;2.00;2.00;;;;;11.07;62.58;100013.97;4958430;28;45375;-62
2023/04/24 02:06:37;;;;;;;;;3.00;3.00;;;;;10.99;61.90;100014.34;4958914;28;45465;-62
2023/04/24 02:09:03;;;;;;;;;4.00;4.00;;;;;10.94;62.90;100013.69;4958473;28;45557;-62
2023/04/24 02:11:28;;;;;;;;;3.00;3.00;;;;;10.88;62.84;100016.63;4958505;28;45522;-62
2023/04/24 02:13:54;;;;;;;;;4.00;3.00;;;;;10.84;63.10;100015.88;4958554;28;45445;-62
2023/04/24 02:16:19;;;;;;;;;4.00;3.00;;;;;10.89;63.20;100023.56;4958699;28;45380;-62
2023/04/24 02:18:45;;;;;;;;;3.33;3.33;;;;;10.96;62.07;100018.88;4959187;28;45457;-62
2023/04/24 02:21:10;;;;;;;;;4.00;3.00;;;;;10.98;62.35;100024.91;4958183;28;46036;-62
2023/04/24 02:23:35;;;;;;;;;3.00;3.00;;;;;10.94;61.89;100026.84;4958435;28;45506;-62
2023/04/24 02:26:01;;;;;;;;;3.67;3.67;;;;;11.00;62.32;100031.81;4958366;28;45399;-62
2023/04/24 02:28:26;;;;;;;;;3.67;3.67;;;;;10.94;62.89;100018.09;4958788;28;45430;-62
2023/04/24 02:30:52;;;;;;;;;3.00;3.00;;;;;11.02;61.96;100029.13;4958030;28;45817;-62
2023/04/24 02:33:17;;;;;;;;;3.00;3.00;;;;;10.96;62.87;100024.13;4957304;28;45538;-62
2023/04/24 02:35:42;;;;;;;;;4.67;4.00;;;;;11.00;62.99;100023.09;4958111;28;47804;-62
2023/04/24 02:38:08;;;;;;;;;6.00;3.67;;;;;10.95;62.54;100025.91;4956806;28;47947;-62
2023/04/24 02:40:33;;;;;;;;;4.00;4.00;;;;;10.94;62.31;100033.91;4957178;28;45454;-62
2023/04/24 02:42:58;;;;;;;;;3.00;3.00;;;;;10.86;63.05;100026.34;4957892;28;45437;-62
2023/04/24 02:45:24;;;;;;;;;4.33;4.33;;;;;10.93;63.03;100029.53;4958132;28;45362;-62
2023/04/24 02:47:49;;;;;;;;;3.00;3.00;;;;;10.95;62.42;100036.44;4957952;28;45605;-62
2023/04/24 02:50:15;;;;;;;;;2.67;2.67;;;;;10.92;62.97;100030.47;4957947;28;45583;-62
2023/04/24 02:52:40;;;;;;;;;3.00;3.00;;;;;10.94;63.06;100039.16;4957068;28;45508;-62
2023/04/24 02:55:07;;;;;;;;;3.33;3.33;;;;;10.95;63.43;100048.75;4956684;28;45499;-62
2023/04/24 02:57:33;;;;;;;;;4.00;4.00;;;;;10.99;62.43;100039.81;4957957;28;45532;-62
2023/04/24 02:59:58;;;;;;;;;3.67;3.67;;;;;10.94;62.50;100047.91;4957547;28;46307;-62
2023/04/24 03:02:23;;;;;;;;;3.00;3.00;;;;;10.90;63.79;100053.34;4957474;28;52855;-62
2023/04/24 03:04:48;;;;;;;;;2.33;2.33;;;;;10.90;63.27;100050.72;4956740;28;45516;-62
2023/04/24 03:07:14;;;;;;;;;3.00;3.00;;;;;10.97;63.69;100049.53;4957795;28;45465;-62
2023/04/24 03:09:40;;;;;;;;;6.00;4.00;;;;;10.95;63.51;100056.63;4957776;28;46302;-62
2023/04/24 03:12:06;;;;;;;;;2.33;2.33;;;;;10.95;63.56;100051.38;4957666;28;45427;-63
2023/04/24 03:14:31;;;;;;;;;3.67;3.67;;;;;10.96;62.51;100060.97;4957649;28;45449;-62
2023/04/24 03:16:57;;;;;;;;;4.00;3.67;;;;;10.96;63.59;100064.47;4957624;28;45727;-62
2023/04/24 03:19:22;;;;;;;;;3.00;3.00;;;;;10.96;63.16;100059.22;4957771;28;45790;-62
2023/04/24 03:21:48;;;;;;;;;5.33;3.00;;;;;10.83;62.77;100042.28;4956533;28;45463;-62
2023/04/24 03:24:13;;;;;;;;;8.33;6.33;;;;;10.98;62.52;100067.03;4957676;28;45447;-62
2023/04/24 03:26:39;;;;;;;;;2.67;2.67;;;;;10.97;62.76;100066.16;4957495;28;45560;-62
2023/04/24 03:29:04;;;;;;;;;1.67;1.67;;;;;10.98;62.86;100059.13;4956861;28;59778;-62
2023/04/24 03:31:29;;;;;;;;;3.00;2.00;;;;;10.95;63.05;100061.91;4957335;28;45459;-62
2023/04/24 03:33:55;;;;;;;;;2.67;2.00;;;;;10.89;62.55;100056.94;4957597;28;45473;-62
2023/04/24 03:36:20;;;;;;;;;2.33;2.33;;;;;10.80;63.30;100056.41;4957400;28;45442;-62
2023/04/24 03:38:46;;;;;;;;;2.00;2.00;;;;;10.78;63.07;100073.19;4956713;28;59102;-62
2023/04/24 03:41:11;;;;;;;;;5.00;4.00;;;;;10.81;63.56;100054.63;4956716;28;56477;-62
2023/04/24 03:43:37;;;;;;;;;2.33;2.33;;;;;10.77;63.06;100051.31;4957168;28;45419;-62
2023/04/24 03:46:03;;;;;;;;;3.00;2.00;;;;;10.83;63.45;100063.31;4957165;28;45388;-62
2023/04/24 03:48:28;;;;;;;;;4.33;4.33;;;;;10.84;64.19;100062.38;4957098;28;45451;-62
2023/04/24 03:50:53;;;;;;;;;2.33;2.33;;;;;10.84;63.69;100063.22;4956459;28;60806;-62
2023/04/24 03:53:19;;;;;;;;;3.33;3.00;;;;;10.83;64.04;100058.91;4956967;28;45418;-62
2023/04/24 03:55:45;;;;;;;;;3.00;3.00;;;;;10.81;63.28;100076.53;4957237;28;45402;-62
2023/04/24 03:58:11;;;;;;;;;3.00;3.00;;;;;10.84;64.06;100076.38;4956682;28;45386;-62
2023/04/24 04:00:37;;;;;;;;;3.00;3.00;;;;;10.83;63.57;100068.59;4957080;28;45354;-62
2023/04/24 04:03:03;;;;;;;;;5.00;4.00;;;;;10.91;63.98;100084.88;4956917;28;45369;-61
2023/04/24 04:05:28;;;;;;;;;6.00;4.33;;;;;10.86;63.75;100086.00;4956705;28;45589;-62
2023/04/24 04:07:53;;;;;;;;;6.00;5.00;;;;;10.77;63.65;100095.13;4956835;28;46112;-62
2023/04/24 04:10:19;;;;;;;;;4.67;4.00;;;;;10.71;64.43;100092.78;4956660;28;45502;-62
2023/04/24 04:12:44;;;;;;;;;4.00;4.00;;;;;10.82;64.24;100108.94;4956950;28;45536;-62
2023/04/24 04:15:10;;;;;;;;;3.00;3.00;;;;;10.79;64.53;100103.81;4956580;28;45508;-62
2023/04/24 04:17:35;;;;;;;;;5.00;4.00;;;;;10.79;63.80;100104.66;4956599;28;46302;-62
2023/04/24 04:20:01;;;;;;;;;4.00;4.00;;;;;10.81;64.62;100101.97;4957363;28;45501;-63
2023/04/24 04:22:26;;;;;;;;;4.67;3.33;;;;;10.80;63.89;100105.53;4956836;28;45470;-63
2023/04/24 04:24:52;;;;;;;;;3.00;3.00;;;;;10.81;63.77;100105.47;4956591;28;45438;-62
2023/04/24 04:27:18;;;;;;;;;4.67;4.00;;;;;10.86;63.91;100105.28;4956334;28;46254;-62
2023/04/24 04:29:44;;;;;;;;;4.33;4.33;;;;;10.86;63.48;100112.31;4956670;28;45446;-62
2023/04/24 04:32:09;;;;;;;;;6.00;5.00;;;;;10.86;63.54;100123.69;4955528;28;45439;-62
2023/04/24 04:34:36;;;;;;;;;6.00;5.67;;;;;10.80;63.71;100114.28;4956346;28;45405;-62
2023/04/24 04:37:02;;;;;;;;;4.67;4.00;;;;;10.87;64.05;100122.75;4956358;28;45335;-62
2023/04/24 04:39:28;;;;;;;;;4.00;4.00;;;;;10.84;63.95;100118.47;4956072;28;45367;-62
2023/04/24 04:41:53;;;;;;;;;5.00;4.33;;;;;10.78;63.52;100129.28;4956355;28;45514;-62
2023/04/24 04:44:19;;;;;;;;;4.00;4.00;;;;;10.80;64.49;100131.81;4956186;28;45392;-62
2023/04/24 04:46:44;;;;;;;;;4.00;3.00;;;;;10.85;63.51;100135.09;4955069;28;47197;-62
2023/04/24 04:49:10;;;;;;;;;6.00;5.33;;;;;10.73;63.88;100128.63;4956073;28;45476;-62
2023/04/24 04:51:36;;;;;;;;;4.67;4.67;;;;;10.77;64.11;100132.84;4956289;28;45492;-62
2023/04/24 04:54:01;;;;;;;;;6.00;5.00;;;;;10.82;63.63;100136.09;4955150;28;45507;-62
2023/04/24 04:56:27;;;;;;;;;6.33;4.67;;;;;10.82;64.09;100145.78;4956060;28;46197;-62
2023/04/24 04:58:52;;;;;;;;;6.00;6.00;;;;;10.69;64.74;100145.44;4956116;28;45493;-62
2023/04/24 05:01:18;;;;;;;;;5.00;5.00;;;;;10.69;64.73;100144.59;4956389;28;45530;-62
2023/04/24 05:03:44;;;;;;;;;3.33;3.33;;;;;10.68;65.02;100149.00;4956151;28;45597;-62
2023/04/24 05:06:09;;;;;;;;;5.33;5.33;;;;;10.78;64.32;100154.72;4955954;28;46080;-62
2023/04/24 05:08:35;;;;;;;;;6.67;5.67;;;;;10.72;64.31;100154.97;4955895;28;45423;-63
2023/04/24 05:11:00;;;;;;;;;5.00;5.00;;;;;10.75;64.82;100160.13;4956044;28;45430;-62
2023/04/24 05:13:26;;;;;;;;;7.00;6.00;;;;;10.74;65.11;100166.28;4956156;28;45421;-62
2023/04/24 05:15:51;;;;;;;;;6.00;5.67;;;;;10.71;64.85;100185.69;4955714;28;45415;-63
2023/04/24 05:18:17;;;;;;;;;6.00;6.00;;;;;10.70;64.27;100185.78;4956276;28;52893;-62
2023/04/24 05:20:43;;;;;;;;;6.67;6.00;;;;;10.73;65.25;100189.13;4954674;28;45567;-62
2023/04/24 05:23:09;;;;;;;;;7.33;5.33;;;;;10.68;64.76;100192.88;4956037;28;45554;-62
2023/04/24 05:25:35;;;;;;;;;7.00;7.00;;;;;10.71;65.17;100190.94;4955748;28;45478;-62
2023/04/24 05:28:01;;;;;;;;;7.33;6.67;;;;;10.73;64.41;100201.41;4958363;28;45417;-62
2023/04/24 05:30:27;;;;;;;;;6.33;5.67;;;;;10.69;65.11;100211.19;4959195;28;45464;-63
2023/04/24 05:32:52;;;;;;;;;8.00;8.00;;;;;10.72;64.80;100207.56;4958951;28;45537;-63
2023/04/24 05:35:18;;;;;;;;;7.00;7.00;;;;;10.71;65.63;100216.41;4959022;28;46443;-62
2023/04/24 05:37:44;;;;;;;;;7.33;7.00;;;;;10.72;65.43;100211.09;4958916;28;45539;-62
2023/04/24 05:40:10;;;;;;;;;6.00;6.00;;;;;10.79;64.71;100216.94;4959083;28;45450;-64
2023/04/24 05:42:35;;;;;;;;;9.67;9.67;;;;;10.78;65.45;100215.22;4959105;28;45602;-62
2023/04/24 05:45:01;;;;;;;;;9.00;8.00;;;;;10.85;64.64;100232.44;4958601;28;45395;-62
2023/04/24 05:47:26;;;;;;;;;6.67;6.67;;;;;10.77;65.31;100210.88;4959000;28;45389;-62
2023/04/24 05:49:52;;;;;;;;;7.33;7.00;;;;;10.97;64.72;100234.56;4958820;28;45494;-62
2023/04/24 05:52:18;;;;;;;;;6.33;6.33;;;;;10.98;64.28;100243.31;4959091;28;45455;-62
2023/04/24 05:54:43;;;;;;;;;8.00;8.00;;;;;10.97;65.31;100247.72;4958422;28;45964;-62
2023/04/24 05:57:08;;;;;;;;;6.00;6.00;;;;;10.94;64.88;100255.75;4958697;28;45410;-62
2023/04/24 05:59:37;;;;;;;;;7.00;7.00;;;;;10.93;65.74;100247.91;4958821;28;45565;-62
2023/04/24 06:02:03;;;;;;;;;9.00;9.00;;;;;10.97;65.06;100255.63;4958913;28;45545;-62
2023/04/24 06:04:28;;;;;;;;;10.33;9.00;;;;;11.02;65.15;100263.31;4957121;28;48911;-62
2023/04/24 06:06:55;;;;;;;;;10.00;8.33;;;;;10.99;64.78;100266.94;4957963;28;55586;-62
2023/04/24 06:09:22;;;;;;;;;10.00;10.00;;;;;10.97;65.96;100275.81;4958811;28;45467;-62
2023/04/24 06:11:47;;;;;;;;;11.33;9.33;;;;;10.96;65.12;100279.34;4958337;28;45403;-62
2023/04/24 06:14:12;;;;;;;;;9.33;9.33;;;;;11.03;64.62;100278.19;4958237;28;46072;-62
2023/04/24 06:16:38;;;;;;;;;9.00;9.00;;;;;11.04;65.03;100278.13;4957610;28;64438;-62
2023/04/24 06:19:04;;;;;;;;;12.67;11.00;;;;;11.09;65.69;100285.81;4958970;28;45508;-62
2023/04/24 06:21:29;;;;;;;;;9.00;8.00;;;;;11.07;64.66;100287.69;4958271;28;45471;-62
2023/04/24 06:23:55;;;;;;;;;9.00;9.00;;;;;11.13;65.15;100291.81;4958077;28;45481;-62
2023/04/24 06:26:21;;;;;;;;;12.33;12.33;;;;;11.18;65.48;100287.22;4958188;28;45545;-62
2023/04/24 06:28:47;;;;;;;;;12.67;10.67;;;;;11.23;65.09;100290.47;4958494;28;45538;-62
2023/04/24 06:31:12;;;;;;;;;13.00;12.33;;;;;11.25;64.44;100301.81;4957853;28;45410;-63
2023/04/24 06:33:38;;;;;;;;;12.00;9.00;;;;;11.17;65.21;100299.50;4957503;28;58211;-62
2023/04/24 06:36:03;;;;;;;;;9.00;8.00;;;;;11.16;65.39;100312.75;4957882;28;45421;-62
2023/04/24 06:38:29;;;;;;;;;10.00;10.00;;;;;11.12;64.51;100312.00;4956830;28;45529;-62
2023/04/24 06:40:55;;;;;;;;;7.67;6.33;;;;;11.15;64.98;100306.63;4957879;28;45427;-62
2023/04/24 06:43:20;;;;;;;;;10.67;10.00;;;;;11.18;65.22;100309.13;4957777;28;47669;-61
2023/04/24 06:45:46;;;;;;;;;10.33;10.33;;;;;11.22;65.00;100310.69;4957361;28;48726;-62
2023/04/24 06:48:12;;;;;;;;;13.67;12.00;;;;;11.26;64.53;100322.81;4958010;28;45572;-62
2023/04/24 06:50:37;;;;;;;;;11.00;11.00;;;;;11.22;65.33;100318.59;4957761;28;45634;-62
2023/04/24 06:53:02;;;;;;;;;13.33;12.33;;;;;11.25;64.50;100313.19;4957556;28;46004;-62
2023/04/24 06:55:28;;;;;;;;;12.00;12.00;;;;;11.34;64.22;100318.97;4957605;28;45427;-62
2023/04/24 06:57:53;;;;;;;;;12.00;12.00;;;;;11.40;64.38;100321.38;4957576;28;45918;-62
2023/04/24 07:00:19;;;;;;;;;11.67;11.33;;;;;11.41;64.07;100318.66;4957445;28;45435;-61
2023/04/24 07:02:44;;;;;;;;;15.67;14.67;;;;;11.46;65.05;100321.09;4957577;28;45381;-61
2023/04/24 07:05:09;;;;;;;;;13.00;11.67;;;;;11.55;63.89;100312.78;4957409;28;45467;-61
2023/04/24 07:07:37;;;;;;;;;15.00;15.00;;;;;11.48;64.50;100314.84;4957487;28;49274;-61
2023/04/24 07:10:04;;;;;;;;;12.00;11.00;;;;;11.50;64.74;100315.63;4957519;28;45541;-61
2023/04/24 07:12:29;;;;;;;;;13.67;12.67;;;;;11.54;63.94;100333.94;4957257;28;45448;-61
2023/04/24 07:14:55;;;;;;;;;12.33;12.33;;;;;11.53;64.88;100326.97;4957287;28;45612;-61
2023/04/24 07:17:20;;;;;;;;;14.00;14.00;;;;;11.50;64.54;100330.59;4956448;28;45493;-61
2023/04/24 07:19:46;;;;;;;;;13.33;13.33;;;;;11.54;63.90;100324.25;4958204;28;45378;-61
2023/04/24 07:22:16;;;;;;;;;14.67;12.33;;;;;11.62;64.73;100316.00;4957160;28;45391;-61
2023/04/24 07:24:43;;;;;;;;;18.67;16.33;;;;;11.68;64.32;100323.63;4957346;28;45436;-61
2023/04/24 07:27:08;;;;;;;;;13.67;13.67;;;;;11.70;63.27;100327.06;4957321;28;45433;-61
2023/04/24 07:29:33;;;;;;;;;19.75;16.25;;;;;11.77;63.30;100325.00;4957048;28;45640;-61
2023/04/24 07:31:59;;;;;;;;;15.67;15.67;;;;;11.75;63.33;100327.72;4956891;28;46226;-61
2023/04/24 07:34:24;;;;;;;;;13.33;13.33;;;;;11.69;63.11;100328.84;4957015;28;45460;-61
2023/04/24 07:36:50;;;;;;;;;18.00;15.00;;;;;11.70;64.12;100334.97;4957012;28;45471;-61
2023/04/24 07:39:15;;;;;;;;;16.67;14.67;;;;;11.68;63.30;100326.28;4956772;28;45585;-61
2023/04/24 07:41:40;;;;;;;;;18.00;15.67;;;;;11.73;62.94;100333.03;4956983;28;45492;-62
2023/04/24 07:44:06;;;;;;;;;15.67;13.33;;;;;11.73;63.51;100329.56;4956499;28;53083;-61
2023/04/24 07:46:31;;;;;;;;;15.67;15.67;;;;;11.76;63.34;100344.38;4956918;28;45351;-61
2023/04/24 07:48:57;;;;;;;;;14.33;14.33;;;;;11.76;63.47;100347.00;4956412;28;45542;-61
2023/04/24 07:51:22;;;;;;;;;19.00;17.00;;;;;11.80;63.46;100340.69;4956611;28;45371;-61
2023/04/24 07:53:48;;;;;;;;;15.33;15.00;;;;;11.83;63.11;100343.19;4956760;28;45414;-61
2023/04/24 07:56:13;;;;;;;;;15.33;15.33;;;;;11.86;63.05;100340.44;4956591;28;45507;-61
2023/04/24 07:58:39;;;;;;;;;17.00;14.67;;;;;11.87;63.23;100347.41;4956846;28;45552;-61
2023/04/24 08:01:04;;;;;;;;;12.67;12.67;;;;;11.86;62.75;100351.00;4956709;28;45917;-61
2023/04/24 08:03:29;;;;;;;;;12.33;12.33;;;;;11.90;63.41;100353.44;4956727;28;45433;-61
2023/04/24 08:05:55;;;;;;;;;18.33;18.33;;;;;11.84;63.78;100358.91;4956493;28;50416;-62
2023/04/24 08:08:22;;;;;;;;;16.67;14.00;;;;;11.81;63.76;100369.59;4956355;28;47104;-61
2023/04/24 08:10:47;;;;;;;;;13.33;13.33;;;;;11.70;63.98;100356.91;4956493;28;45446;-61
2023/04/24 08:13:13;;;;;;;;;15.00;15.00;;;;;11.61;63.66;100346.78;4956200;28;45398;-61
2023/04/24 08:15:38;;;;;;;;;8.00;7.00;;;;;11.66;63.82;100362.34;4955333;28;45423;-61
2023/04/24 08:18:03;;;;;;;;;20.67;17.33;;;;;11.73;63.47;100371.72;4956534;28;45467;-61
2023/04/24 08:20:29;;;;;;;;;17.67;17.00;;;;;11.77;64.20;100365.41;4956936;28;45423;-61
2023/04/24 08:22:55;;;;;;;;;18.67;15.00;;;;;11.76;63.20;100374.22;4956425;28;45485;-61
2023/04/24 08:25:22;;;;;;;;;16.67;15.67;;;;;11.78;62.98;100377.63;4956493;28;45533;-61
2023/04/24 08:27:48;;;;;;;;;20.00;18.00;;;;;11.79;63.04;100381.13;4956395;28;45622;-61
2023/04/24 08:30:13;;;;;;;;;21.50;17.50;;;;;11.81;63.82;100371.38;4956009;28;45393;-61
2023/04/24 08:32:38;;;;;;;;;18.67;18.33;;;;;11.89;63.60;100369.28;4955994;28;45442;-61
2023/04/24 08:35:04;;;;;;;;;22.75;21.75;;;;;11.91;63.49;100370.94;4956467;28;45470;-61
2023/04/24 08:37:30;;;;;;;;;19.67;17.33;;;;;11.93;63.46;100368.25;4956449;28;45485;-61
2023/04/24 08:39:55;;;;;;;;;17.67;17.67;;;;;11.97;61.74;100372.44;4955958;28;45633;-61
2023/04/24 08:42:21;;;;;;;;;20.33;18.33;;;;;12.02;62.73;100373.09;4956245;28;45482;-61
2023/04/24 08:44:48;;;;;;;;;19.33;19.33;;;;;12.10;62.42;100370.97;4956058;28;45442;-61
2023/04/24 08:47:15;;;;;;;;;16.33;15.67;;;;;12.19;62.18;100376.75;4955923;28;45505;-61
2023/04/24 08:49:41;;;;;;;;;20.00;17.00;;;;;12.25;62.12;100381.72;4955806;28;46473;-60
2023/04/24 08:52:06;;;;;;;;;19.33;18.33;;;;;12.27;61.40;100380.72;4956118;28;45387;-61
2023/04/24 08:54:36;;;;;;;;;20.00;17.33;;;;;12.20;61.89;100381.97;4955960;28;45382;-60
2023/04/24 08:57:03;;;;;;;;;20.67;18.67;;;;;12.28;62.30;100369.28;4956113;28;45424;-60
2023/04/24 08:59:30;;;;;;;;;19.67;18.33;;;;;12.37;61.86;100373.28;4955561;28;45486;-61
2023/04/24 09:01:56;;;;;;;;;22.00;19.00;;;;;12.38;60.69;100367.06;4955666;28;45460;-63
2023/04/24 09:04:24;;;;;;;;;19.00;18.00;;;;;12.42;60.96;100376.56;4959544;28;45403;-62
2023/04/24 09:06:59;;;;;;;;;22.33;17.00;;;;;12.45;61.07;100379.03;4959056;28;45441;-62
2023/04/24 09:09:25;;;;;;;;;21.33;20.33;;;;;12.46;60.79;100371.97;4959261;28;45484;-62
2023/04/24 09:11:54;;;;;;;;;17.33;17.33;;;;;12.54;61.04;100383.03;4959056;28;45459;-62
2023/04/24 09:14:20;;;;;;;;;24.33;18.00;;;;;12.55;60.97;100390.03;4959452;28;45534;-62
2023/04/24 09:16:46;;;;;;;;;18.00;16.67;;;;;12.55;60.74;100384.75;4959122;28;45440;-61
2023/04/24 09:19:12;;;;;;;;;20.00;17.00;;;;;12.60;60.21;100388.03;4959495;28;45419;-62
2023/04/24 09:21:37;;;;;;;;;17.33;16.00;;;;;12.67;60.38;100391.22;4959173;28;45503;-62
2023/04/24 09:24:18;;;;;;;;;17.33;17.33;;;;;12.69;59.94;100406.06;4959139;28;45486;-62
2023/04/24 09:26:44;;;;;;;;;19.00;17.33;;;;;12.61;59.77;100395.00;4959213;28;45517;-62
2023/04/24 09:29:15;;;;;;;;;17.33;16.00;;;;;12.60;59.53;100394.16;4958604;28;45742;-62
2023/04/24 09:31:40;;;;;;;;;16.00;15.00;;;;;12.55;58.90;100398.78;4959173;28;45621;-62
2023/04/24 09:34:06;;;;;;;;;19.67;19.67;;;;;12.53;59.54;100402.44;4959079;28;45476;-62
2023/04/24 09:36:33;;;;;;;;;20.00;20.00;;;;;12.59;59.97;100404.78;4958509;28;53872;-63
2023/04/24 09:39:00;;;;;;;;;20.00;20.00;;;;;12.68;60.07;100408.75;4959019;28;45444;-62
2023/04/24 09:41:27;;;;;;;;;22.33;18.33;;;;;12.71;59.59;100404.22;4958604;28;45398;-62
2023/04/24 09:43:54;;;;;;;;;21.33;19.67;;;;;12.78;59.54;100415.31;4959210;28;45385;-63
2023/04/24 09:46:21;;;;;;;;;16.00;15.00;;;;;12.70;58.81;100412.19;4958821;28;45445;-62
2023/04/24 09:48:47;;;;;;;;;19.00;18.33;;;;;12.70;58.92;100406.91;4958784;28;45449;-63
2023/04/24 09:51:12;;;;;;;;;17.00;15.00;;;;;12.72;58.66;100408.53;4958436;28;45491;-60
2023/04/24 09:53:39;;;;;;;;;15.33;14.00;;;;;12.77;58.83;100408.34;4958757;28;45470;-60
2023/04/24 09:56:09;;;;;;;;;17.00;16.00;;;;;12.78;59.12;100410.03;4958771;28;45659;-61
2023/04/24 09:58:36;;;;;;;;;19.00;17.00;;;;;12.82;58.58;100412.47;4958318;28;45387;-61
2023/04/24 10:01:01;;;;;;;;;20.00;17.67;;;;;12.88;58.57;100407.81;4958363;28;45462;-60
2023/04/24 10:03:30;;;;;;;;;25.00;19.00;;;;;12.92;58.69;100409.38;4958360;28;45485;-61
2023/04/24 10:06:08;;;;;;;;;20.33;19.33;;;;;12.96;58.15;100403.03;4958665;28;45709;-62
2023/04/24 10:08:35;;;;;;;;;19.33;16.67;;;;;13.05;58.44;100408.69;4956527;28;45439;-62
2023/04/24 10:11:01;;;;;;;;;15.00;15.00;;;;;13.10;58.08;100415.56;4958152;28;45611;-62
2023/04/24 10:13:27;;;;;;;;;14.00;14.00;;;;;13.08;57.60;100412.97;4957946;28;45502;-62
2023/04/24 10:15:53;;;;;;;;;16.00;15.00;;;;;13.14;58.27;100411.84;4958259;28;45391;-62
2023/04/24 10:18:21;;;;;;;;;19.67;16.67;;;;;13.19;58.00;100415.09;4958137;28;46186;-62
2023/04/24 10:20:47;;;;;;;;;16.67;16.00;;;;;13.21;58.15;100418.53;4958580;28;45405;-63
2023/04/24 10:23:13;;;;;;;;;18.00;18.00;;;;;13.20;56.73;100420.31;4958162;28;45499;-62
2023/04/24 10:25:38;;;;;;;;;18.33;17.33;;;;;13.20;56.66;100416.81;4958007;28;45392;-62
2023/04/24 10:28:05;;;;;;;;;26.67;23.33;;;;;13.25;56.97;100409.53;4957766;28;45419;-61
2023/04/24 10:30:35;;;;;;;;;18.67;16.00;;;;;13.29;56.16;100413.75;4957861;28;45463;-61
2023/04/24 10:33:03;;;;;;;;;17.33;16.00;;;;;13.35;56.15;100417.88;4957788;28;45405;-61
2023/04/24 10:35:31;;;;;;;;;18.00;17.00;;;;;13.38;55.83;100423.00;4956830;28;45477;-61
2023/04/24 10:38:11;;;;;;;;;19.00;19.00;;;;;13.36;55.03;100420.44;4957552;28;45418;-61
2023/04/24 10:40:37;;;;;;;;;18.00;16.67;;;;;13.42;55.25;100421.91;4957848;28;45388;-61
2023/04/24 10:43:08;;;;;;;;;17.33;16.67;;;;;13.46;55.19;100426.13;4957691;28;45419;-62
2023/04/24 10:45:33;;;;;;;;;17.67;14.00;;;;;13.47;55.47;100417.28;4957810;28;45582;-61
2023/04/24 10:48:01;;;;;;;;;18.33;16.67;;;;;13.47;55.67;100420.75;4957451;28;45473;-62
2023/04/24 10:50:45;;;;;;;;;14.67;14.33;;;;;13.40;55.54;100414.06;4957359;28;45570;-61
2023/04/24 10:53:19;;;;;;;;;11.33;11.33;;;;;13.48;55.59;100418.97;4957474;28;45497;-61
2023/04/24 10:55:51;;;;;;;;;10.33;10.33;;;;;13.48;54.77;100408.41;4957791;28;45573;-62
2023/04/24 10:58:22;;;;;;;;;35.75;28.75;;;;;13.48;55.25;100411.88;4956927;28;45538;-62
2023/04/24 11:00:56;;;;;;;;;14.67;10.67;;;;;13.53;54.51;100409.03;4957521;28;45395;-62
2023/04/24 11:03:30;;;;;;;;;16.33;14.33;;;;;13.59;55.32;100407.84;4957646;28;45431;-62
2023/04/24 11:06:03;;;;;;;;;12.00;12.00;;;;;13.62;53.93;100410.34;4957416;28;45340;-62
2023/04/24 11:08:37;;;;;;;;;16.67;16.67;;;;;13.64;54.55;100408.47;4957134;28;46052;-62
2023/04/24 11:11:10;;;;;;;;;19.33;19.00;;;;;13.68;54.35;100402.97;4957110;28;45391;-62
2023/04/24 11:13:53;;;;;;;;;16.00;14.67;;;;;13.70;53.79;100400.22;4955900;28;45415;-62